createdAt,value
2019-01-18T00:02:28.191Z,100035.82
2019-01-18T00:04:58.119Z,100042.91
2019-01-18T00:07:28.657Z,100035.06
2019-01-18T00:09:58.772Z,100040.95
2019-01-18T00:12:28.737Z,100036.52
2019-01-18T00:14:58.737Z,100042.23
2019-01-18T00:17:28.629Z,100038.56
2019-01-18T00:19:59.014Z,100043.20
2019-01-18T00:22:29.004Z,100047.42
2019-01-18T00:24:58.913Z,100057.79
2019-01-18T00:27:28.937Z,100057.17
2019-01-18T00:29:59.129Z,100054.28
2019-01-18T00:32:29.275Z,100071.66
2019-01-18T00:34:59.229Z,100068.83
2019-01-18T00:37:29.134Z,100059.48
2019-01-18T00:39:59.204Z,100075.58
2019-01-18T00:42:29.193Z,100076.92
2019-01-18T00:44:59.451Z,100080.36
2019-01-18T00:47:29.946Z,100083.11
2019-01-18T00:49:59.875Z,100087.05
2019-01-18T00:52:29.831Z,100087.65
2019-01-18T00:54:59.730Z,100087.33
2019-01-18T00:57:29.866Z,100103.47
2019-01-18T00:59:59.754Z,100093.07
2019-01-18T01:02:29.791Z,100102.79
2019-01-18T01:04:59.683Z,100106.05
2019-01-18T01:07:29.675Z,100110.41
2019-01-18T01:09:59.583Z,100112.52
2019-01-18T01:12:31.045Z,100137.79
2019-01-18T01:15:01.760Z,100138.29
2019-01-18T01:17:31.891Z,100141.55
2019-01-18T01:20:01.944Z,100147.39
2019-01-18T01:22:32.119Z,100167.10
2019-01-18T01:25:02.573Z,100184.55
2019-01-18T01:27:32.638Z,100206.66
2019-01-18T01:30:03.321Z,100216.39
2019-01-18T01:32:33.520Z,100238.51
2019-01-18T01:35:03.509Z,100262.56
2019-01-18T01:37:33.850Z,100262.38
2019-01-18T01:40:04.320Z,100274.03
2019-01-18T01:42:34.250Z,100284.27
2019-01-18T01:45:06.147Z,100296.92
2019-01-18T01:47:36.044Z,100292.98
2019-01-18T01:50:09.063Z,100299.43
2019-01-18T01:52:38.965Z,100309.58
2019-01-18T01:55:09.916Z,100317.84
2019-01-18T01:57:40.587Z,100324.30
2019-01-18T02:00:15.940Z,100335.08
2019-01-18T02:02:46.250Z,100330.80
2019-01-18T02:05:16.259Z,100352.14
2019-01-18T02:07:46.731Z,100355.48
2019-01-18T02:10:18.039Z,100361.00
2019-01-18T02:12:48.477Z,100379.83
2019-01-18T02:15:21.789Z,100371.94
2019-01-18T02:17:52.085Z,100378.47
2019-01-18T02:20:23.658Z,100380.84
2019-01-18T02:22:53.977Z,100387.73
2019-01-18T02:25:24.082Z,100390.83
2019-01-18T02:27:55.156Z,100399.38
2019-01-18T02:30:30.130Z,100401.05
2019-01-18T02:33:00.184Z,100409.09
2019-01-18T02:35:31.030Z,100417.17
2019-01-18T02:38:01.000Z,100422.53
2019-01-18T02:40:30.885Z,100427.36
2019-01-18T02:43:01.071Z,100429.78
2019-01-18T02:45:31.090Z,100448.73
2019-01-18T02:48:00.977Z,100463.23
2019-01-18T02:50:31.199Z,100472.03
2019-01-18T02:53:01.094Z,100472.86
2019-01-18T02:55:31.472Z,100477.42
2019-01-18T02:58:01.347Z,100475.09
2019-01-18T03:00:31.515Z,100486.57
2019-01-18T03:03:01.681Z,100480.09
2019-01-18T03:05:31.744Z,100488.13
2019-01-18T03:08:02.345Z,100494.17
2019-01-18T03:10:32.795Z,100503.73
2019-01-18T03:13:03.164Z,100507.58
2019-01-18T03:15:33.057Z,100520.02
2019-01-18T03:18:03.382Z,100515.08
2019-01-18T03:20:33.494Z,100529.39
2019-01-18T03:23:04.217Z,100532.99
2019-01-18T03:25:34.171Z,100544.41
2019-01-18T03:28:04.062Z,100548.20
2019-01-18T03:30:33.925Z,100553.09
2019-01-18T03:33:03.836Z,100559.02
2019-01-18T03:35:33.938Z,100569.74
2019-01-18T03:38:03.938Z,100573.01
2019-01-18T03:40:33.898Z,100571.66
2019-01-18T03:43:03.932Z,100583.70
2019-01-18T03:45:33.818Z,100581.83
2019-01-18T03:48:04.075Z,100587.47
2019-01-18T03:50:34.045Z,100596.02
2019-01-18T03:53:03.928Z,100597.80
2019-01-18T03:55:33.841Z,100605.83
2019-01-18T03:58:03.948Z,100611.47
2019-01-18T04:00:34.084Z,100615.83
2019-01-18T04:03:03.982Z,100616.87
2019-01-18T04:05:34.474Z,100624.34
2019-01-18T04:08:04.438Z,100635.03
2019-01-18T04:10:34.349Z,100637.18
2019-01-18T04:13:04.623Z,100644.44
2019-01-18T04:15:34.519Z,100647.96
2019-01-18T04:18:04.715Z,100658.13
2019-01-18T04:20:34.868Z,100668.05
2019-01-18T04:23:04.824Z,100668.17
2019-01-18T04:25:34.707Z,100672.19
2019-01-18T04:28:04.827Z,100673.42
2019-01-18T04:30:35.158Z,100682.03
2019-01-18T04:33:05.260Z,100686.99
2019-01-18T04:35:35.380Z,100692.53
2019-01-18T04:38:05.656Z,100696.30
2019-01-18T04:40:35.959Z,100701.89
2019-01-18T04:43:06.001Z,100702.83
2019-01-18T04:45:35.912Z,100706.03
2019-01-18T04:48:05.972Z,100713.81
2019-01-18T04:50:35.930Z,100714.60
2019-01-18T04:53:05.814Z,100713.30
2019-01-18T04:55:35.878Z,100720.25
2019-01-18T04:58:06.401Z,100722.05
2019-01-18T05:00:40.515Z,100723.53
2019-01-18T05:03:07.947Z,100725.55
2019-01-18T05:05:37.838Z,100731.91
2019-01-18T05:08:07.984Z,100744.70
2019-01-18T05:10:37.904Z,100744.52
2019-01-18T05:13:08.201Z,100758.27
2019-01-18T05:15:38.481Z,100762.70
2019-01-18T05:18:08.382Z,100776.02
2019-01-18T05:20:38.263Z,100779.86
2019-01-18T05:23:08.137Z,100792.38
2019-01-18T05:25:38.258Z,100798.63
2019-01-18T05:28:08.182Z,100804.70
2019-01-18T05:30:38.526Z,100800.75
2019-01-18T05:33:08.418Z,100810.11
2019-01-18T05:35:38.505Z,100814.74
2019-01-18T05:38:08.456Z,100824.34
2019-01-18T05:40:38.448Z,100831.53
2019-01-18T05:43:08.336Z,100840.04
2019-01-18T05:45:38.969Z,100849.98
2019-01-18T05:48:09.093Z,100852.08
2019-01-18T05:50:39.082Z,100860.60
2019-01-18T05:53:09.735Z,100866.55
2019-01-18T05:55:39.922Z,100872.13
2019-01-18T05:58:10.144Z,100874.36
2019-01-18T06:00:43.383Z,100880.70
2019-01-18T06:03:13.762Z,100886.47
2019-01-18T06:05:45.067Z,100905.95
2019-01-18T06:08:15.043Z,100904.28
2019-01-18T06:10:44.990Z,100907.50
2019-01-18T06:13:15.521Z,100915.94
2019-01-18T06:15:45.738Z,100917.39
2019-01-18T06:18:15.841Z,100921.05
2019-01-18T06:20:46.164Z,100930.20
2019-01-18T06:23:16.573Z,100936.89
2019-01-18T06:25:46.550Z,100946.80
2019-01-18T06:28:16.612Z,100951.26
2019-01-18T06:30:46.518Z,100953.19
2019-01-18T06:33:16.427Z,100953.02
2019-01-18T06:35:47.118Z,100962.16
2019-01-18T06:38:17.033Z,100965.63
2019-01-18T06:40:48.594Z,100975.66
2019-01-18T06:43:19.322Z,100988.48
2019-01-18T06:45:49.203Z,100997.39
2019-01-18T06:48:22.087Z,101003.16
2019-01-18T06:50:52.870Z,101012.09
2019-01-18T06:53:22.754Z,101021.34
2019-01-18T06:55:52.673Z,101032.84
2019-01-18T06:58:22.958Z,101034.02
2019-01-18T07:00:52.824Z,101044.66
2019-01-18T07:03:23.250Z,101041.72
2019-01-18T07:05:53.395Z,101051.81
2019-01-18T07:08:23.308Z,101060.52
2019-01-18T07:10:53.316Z,101065.13
2019-01-18T07:13:23.234Z,101073.00
2019-01-18T07:15:53.301Z,101077.52
2019-01-18T07:18:23.406Z,101082.25
2019-01-18T07:20:53.656Z,101090.68
2019-01-18T07:23:23.575Z,101091.55
2019-01-18T07:25:53.725Z,101102.91
2019-01-18T07:28:23.729Z,101114.95
2019-01-18T07:30:54.017Z,101114.96
2019-01-18T07:33:23.946Z,101124.16
2019-01-18T07:35:53.832Z,101131.47
2019-01-18T07:38:23.988Z,101133.38
2019-01-18T07:40:54.182Z,101147.47
2019-01-18T07:43:24.065Z,101146.55
2019-01-18T07:45:54.206Z,101154.94
2019-01-18T07:48:24.478Z,101162.25
2019-01-18T07:50:54.367Z,101169.92
2019-01-18T07:53:24.268Z,101174.20
2019-01-18T07:55:54.834Z,101177.91
2019-01-18T07:58:24.831Z,101184.77
2019-01-18T08:00:55.118Z,101188.69
2019-01-18T08:03:26.233Z,101193.53
2019-01-18T08:05:56.267Z,101204.15
2019-01-18T08:08:26.323Z,101208.08
2019-01-18T08:10:56.560Z,101209.05
2019-01-18T08:13:26.521Z,101219.24
2019-01-18T08:15:56.537Z,101220.50
2019-01-18T08:18:26.466Z,101238.22
2019-01-18T08:20:56.368Z,101235.89
2019-01-18T08:23:26.669Z,101245.86
2019-01-18T08:25:56.547Z,101259.83
2019-01-18T08:28:26.606Z,101265.07
2019-01-18T08:30:56.481Z,101259.92
2019-01-18T08:33:26.817Z,101263.02
2019-01-18T08:35:56.762Z,101281.11
2019-01-18T08:38:26.954Z,101278.45
2019-01-18T08:40:57.171Z,101286.23
2019-01-18T08:43:27.328Z,101287.84
2019-01-18T08:46:00.927Z,101301.95
2019-01-18T08:48:31.162Z,101302.89
2019-01-18T08:51:01.007Z,101300.09
2019-01-18T08:53:31.073Z,101305.48
2019-01-18T08:56:01.169Z,101309.41
2019-01-18T08:58:31.062Z,101320.07
2019-01-18T09:01:01.043Z,101321.23
2019-01-18T09:03:31.255Z,101325.80
2019-01-18T09:06:02.006Z,101324.66
2019-01-18T09:08:32.193Z,101318.60
2019-01-18T09:11:02.168Z,101320.32
2019-01-18T09:13:32.044Z,101328.15
2019-01-18T09:16:02.016Z,101332.98
2019-01-18T09:18:32.728Z,101331.87
2019-01-18T09:21:02.699Z,101333.55
2019-01-18T09:23:33.044Z,101340.84
2019-01-18T09:26:02.952Z,101344.38
2019-01-18T09:28:33.253Z,101345.51
2019-01-18T09:31:03.173Z,101344.89
2019-01-18T09:33:33.192Z,101353.64
2019-01-18T09:36:03.388Z,101358.92
2019-01-18T09:38:33.354Z,101358.22
2019-01-18T09:41:03.711Z,101355.48
2019-01-18T09:43:33.922Z,101355.81
2019-01-18T09:46:03.824Z,101358.36
2019-01-18T09:48:33.743Z,101360.77
2019-01-18T09:51:03.684Z,101369.77
2019-01-18T09:53:33.591Z,101366.81
2019-01-18T09:56:03.579Z,101368.25
2019-01-18T09:58:33.774Z,101372.31
2019-01-18T10:01:05.589Z,101370.79
2019-01-18T10:03:35.530Z,101368.25
2019-01-18T10:06:05.829Z,101371.05
2019-01-18T10:08:35.778Z,101366.92
2019-01-18T10:11:05.978Z,101371.34
2019-01-18T10:13:35.894Z,101370.95
2019-01-18T10:16:06.188Z,101372.40
2019-01-18T10:18:36.323Z,101371.75
2019-01-18T10:21:06.600Z,101374.88
2019-01-18T10:23:36.877Z,101367.47
2019-01-18T10:26:06.852Z,101370.02
2019-01-18T10:28:36.858Z,101372.06
2019-01-18T10:31:07.052Z,101371.91
2019-01-18T10:33:37.250Z,101372.87
2019-01-18T10:36:07.316Z,101372.70
2019-01-18T10:38:37.589Z,101374.03
2019-01-18T10:41:07.907Z,101378.08
2019-01-18T10:43:37.922Z,101379.08
2019-01-18T10:46:08.443Z,101390.69
2019-01-18T10:48:38.416Z,101388.79
2019-01-18T10:51:08.575Z,101391.65
2019-01-18T10:53:38.699Z,101396.43
2019-01-18T10:56:08.698Z,101398.72
2019-01-18T10:58:38.663Z,101401.83
2019-01-18T11:01:08.638Z,101405.87
2019-01-18T11:03:39.461Z,101408.19
2019-01-18T11:06:09.863Z,101407.86
2019-01-18T11:08:40.198Z,101408.72
2019-01-18T11:11:10.099Z,101416.16
2019-01-18T11:13:40.229Z,101407.67
2019-01-18T11:16:10.353Z,101409.80
2019-01-18T11:18:40.606Z,101419.73
2019-01-18T11:21:16.333Z,101411.67
2019-01-18T11:23:46.283Z,101418.84
2019-01-18T11:26:16.263Z,101415.64
2019-01-18T11:28:46.300Z,101424.30
2019-01-18T11:31:16.628Z,101427.66
2019-01-18T11:33:46.814Z,101421.58
2019-01-18T11:36:16.920Z,101419.29
2019-01-18T11:38:46.850Z,101420.84
2019-01-18T11:41:17.028Z,101420.13
2019-01-18T11:43:46.912Z,101418.45
2019-01-18T11:46:16.787Z,101422.04
2019-01-18T11:48:50.323Z,101417.17
2019-01-18T11:51:20.132Z,101417.27
2019-01-18T11:53:50.260Z,101421.41
2019-01-18T11:56:20.425Z,101420.13
2019-01-18T11:58:50.779Z,101424.45
2019-01-18T12:01:20.671Z,101424.77
2019-01-18T12:03:50.583Z,101427.54
2019-01-18T12:06:20.463Z,101425.73
2019-01-18T12:08:50.363Z,101433.87
2019-01-18T12:11:20.696Z,101430.83
2019-01-18T12:13:50.578Z,101439.33
2019-01-18T12:16:20.471Z,101438.98
2019-01-18T12:18:50.680Z,101440.39
2019-01-18T12:21:20.610Z,101441.53
2019-01-18T12:23:50.503Z,101442.31
2019-01-18T12:26:20.529Z,101450.05
2019-01-18T12:28:50.521Z,101452.06
2019-01-18T12:31:20.471Z,101442.56
2019-01-18T12:33:50.396Z,101444.25
2019-01-18T12:36:20.410Z,101445.61
2019-01-18T12:38:50.857Z,101444.09
2019-01-18T12:41:21.132Z,101443.48
2019-01-18T12:43:51.313Z,101441.23
2019-01-18T12:46:21.540Z,101444.77
2019-01-18T12:48:51.549Z,101445.91
2019-01-18T12:51:22.704Z,101449.67
2019-01-18T12:53:52.969Z,101453.14
2019-01-18T12:56:23.195Z,101448.89
2019-01-18T12:58:56.609Z,101444.45
2019-01-18T13:01:28.629Z,101443.63
2019-01-18T13:03:59.806Z,101439.12
2019-01-18T13:06:34.815Z,101442.38
2019-01-18T13:09:07.600Z,101447.55
2019-01-18T13:11:38.237Z,101449.43
2019-01-18T13:14:08.858Z,101450.70
2019-01-18T13:16:46.036Z,101450.05
2019-01-18T13:19:20.926Z,101452.79
2019-01-18T13:21:51.593Z,101455.80
2019-01-18T13:24:22.026Z,101454.20
2019-01-18T13:26:52.184Z,101462.12
2019-01-18T13:29:24.374Z,101456.84
2019-01-18T13:32:20.037Z,101452.17
2019-01-18T13:34:50.393Z,101457.82
2019-01-18T13:37:24.212Z,101459.83
2019-01-18T13:39:55.964Z,101457.28
2019-01-18T13:42:26.491Z,101464.42
2019-01-18T13:44:59.788Z,101460.03
2019-01-18T13:47:31.007Z,101457.72
2019-01-18T13:50:01.750Z,101463.08
2019-01-18T13:52:32.093Z,101458.76
2019-01-18T13:55:04.768Z,101458.42
2019-01-18T13:58:12.146Z,101461.27
2019-01-18T14:00:42.903Z,101455.41
2019-01-18T14:07:01.172Z,101459.64
2019-01-18T14:09:39.995Z,101467.67
2019-01-18T14:12:16.179Z,101465.45
2019-01-18T14:14:49.245Z,101461.30
2019-01-18T14:18:42.881Z,101465.83
2019-01-18T14:24:45.643Z,101465.08
2019-01-18T14:27:16.136Z,101464.58
2019-01-18T14:29:46.455Z,101467.59
2019-01-18T14:32:17.024Z,101470.28
2019-01-18T14:34:51.696Z,101472.42
2019-01-18T14:37:24.404Z,101461.38
2019-01-18T14:40:28.511Z,101475.31
2019-01-18T14:43:09.248Z,101466.34
2019-01-18T14:45:52.245Z,101479.64
2019-01-18T14:48:33.034Z,101473.87
2019-01-18T14:54:21.185Z,101467.98
2019-01-18T14:56:57.672Z,101464.88
2019-01-18T14:59:28.262Z,101465.77
2019-01-18T15:02:03.422Z,101473.65
2019-01-18T15:04:36.125Z,101474.63
2019-01-18T15:07:09.216Z,101472.42
2019-01-18T15:09:49.291Z,101479.84
2019-01-18T15:12:40.420Z,101476.80
2019-01-18T15:16:41.065Z,101478.30
2019-01-18T15:19:11.539Z,101472.38
2019-01-18T15:21:47.141Z,101463.32
2019-01-18T15:24:17.773Z,101463.41
2019-01-18T15:27:22.425Z,101468.64
2019-01-18T15:30:14.235Z,101470.42
2019-01-18T15:32:46.524Z,101467.49
2019-01-18T15:35:20.748Z,101471.98
2019-01-18T15:37:51.371Z,101459.43
2019-01-18T15:40:25.261Z,101466.03
2019-01-18T15:42:58.473Z,101473.09
2019-01-18T15:45:29.683Z,101465.95
2019-01-18T15:48:19.180Z,101475.28
2019-01-18T15:50:49.488Z,101471.00
2019-01-18T15:53:19.825Z,101475.91
2019-01-18T15:55:50.225Z,101477.94
2019-01-18T15:58:43.387Z,101474.32
2019-01-18T16:01:17.020Z,101472.38
2019-01-18T16:03:47.456Z,101481.98
2019-01-18T16:06:17.432Z,101483.68
2019-01-18T16:08:47.478Z,101482.86
2019-01-18T16:11:17.712Z,101479.44
2019-01-18T16:13:48.232Z,101483.81
2019-01-18T16:16:42.316Z,101487.36
2019-01-18T16:19:12.190Z,101488.11
2019-01-18T16:21:42.071Z,101491.73
2019-01-18T16:24:12.109Z,101487.06
2019-01-18T16:26:42.102Z,101492.73
2019-01-18T16:29:12.111Z,101495.70
2019-01-18T16:31:42.865Z,101489.97
2019-01-18T16:34:12.725Z,101487.45
2019-01-18T16:36:42.765Z,101488.43
2019-01-18T16:39:12.791Z,101487.52
2019-01-18T16:41:42.816Z,101495.94
2019-01-18T16:44:12.787Z,101492.00
2019-01-18T16:46:42.909Z,101487.15
2019-01-18T16:49:13.029Z,101490.14
2019-01-18T16:51:43.481Z,101491.31
2019-01-18T16:54:13.519Z,101491.25
2019-01-18T16:56:43.401Z,101484.87
2019-01-18T16:59:13.427Z,101481.67
2019-01-18T17:01:43.558Z,101485.14
2019-01-18T17:04:13.592Z,101480.83
2019-01-18T17:06:43.792Z,101487.67
2019-01-18T17:09:13.643Z,101493.28
2019-01-18T17:11:43.525Z,101493.34
2019-01-18T17:14:13.446Z,101492.02
2019-01-18T17:16:47.035Z,101491.28
2019-01-18T17:19:19.131Z,101496.48
2019-01-18T17:21:49.105Z,101500.67
2019-01-18T17:24:18.987Z,101502.14
2019-01-18T17:26:48.872Z,101506.23
2019-01-18T17:29:18.740Z,101503.94
2019-01-18T17:31:48.890Z,101503.73
2019-01-18T17:34:18.826Z,101508.91
2019-01-18T17:36:59.693Z,101508.13
2019-01-18T17:40:10.119Z,101509.98
2019-01-18T17:43:40.465Z,101513.54
2019-01-18T17:46:27.397Z,101523.83
2019-01-18T17:49:46.767Z,101524.25
2019-01-18T17:52:56.866Z,101518.36
2019-01-18T17:56:09.344Z,101522.77
2019-01-18T17:59:31.444Z,101521.77
2019-01-18T18:02:58.594Z,101526.46
2019-01-18T18:06:23.734Z,101527.39
2019-01-18T18:09:13.099Z,101529.20
2019-01-18T18:12:59.127Z,101534.44
2019-01-18T18:16:12.489Z,101539.26
2019-01-18T18:19:36.789Z,101542.63
2019-01-18T18:23:01.868Z,101539.69
2019-01-18T18:26:24.187Z,101543.06
2019-01-18T18:29:41.943Z,101554.69
2019-01-18T18:32:59.050Z,101554.50
2019-01-18T18:36:17.596Z,101557.19
2019-01-18T18:39:47.330Z,101562.46
2019-01-18T18:42:58.886Z,101565.13
2019-01-18T18:46:33.616Z,101560.78
2019-01-18T18:50:12.805Z,101560.83
2019-01-18T18:53:48.092Z,101567.95
2019-01-18T18:57:04.766Z,101565.53
2019-01-18T19:00:15.071Z,101571.09
2019-01-18T19:03:57.518Z,101572.47
2019-01-18T19:07:45.407Z,101572.92
2019-01-18T19:11:13.645Z,101577.19
2019-01-18T19:14:32.610Z,101572.14
2019-01-18T19:17:37.864Z,101572.27
2019-01-18T19:21:03.588Z,101570.80
2019-01-18T19:24:09.377Z,101570.79
2019-01-18T19:27:52.191Z,101572.00
2019-01-18T19:31:07.290Z,101578.71
2019-01-18T19:34:18.734Z,101578.60
2019-01-18T19:37:36.454Z,101586.80
2019-01-18T19:41:00.956Z,101584.98
2019-01-18T19:44:05.880Z,101584.77
2019-01-18T19:47:23.827Z,101586.05
2019-01-18T19:51:12.072Z,101589.89
2019-01-18T19:54:32.953Z,101592.54
2019-01-18T19:57:48.215Z,101596.41
2019-01-18T20:00:59.883Z,101599.87
2019-01-18T20:04:11.688Z,101601.08
2019-01-18T20:07:27.353Z,101598.98
2019-01-18T20:11:09.812Z,101611.57
2019-01-18T20:15:01.641Z,101611.78
2019-01-18T20:18:30.400Z,101615.48
2019-01-18T20:21:36.143Z,101620.03
2019-01-18T20:25:18.823Z,101618.25
2019-01-18T20:28:37.057Z,101619.66
2019-01-18T20:31:44.486Z,101621.65
2019-01-18T20:35:02.127Z,101623.53
2019-01-18T20:38:40.649Z,101632.11
2019-01-18T20:41:58.759Z,101623.77
2019-01-18T20:44:52.240Z,101625.25
2019-01-18T20:48:04.072Z,101622.78
2019-01-18T20:51:27.914Z,101635.25
2019-01-18T20:54:35.561Z,101636.33
2019-01-18T20:57:39.688Z,101633.42
2019-01-18T21:01:17.675Z,101635.08
2019-01-18T21:04:42.904Z,101636.50
2019-01-18T21:07:50.747Z,101636.68
2019-01-18T21:11:26.585Z,101647.78
2019-01-18T21:14:27.606Z,101648.39
2019-01-18T21:17:33.110Z,101651.44
2019-01-18T21:20:58.634Z,101647.16
2019-01-18T21:24:04.472Z,101656.98
2019-01-18T21:27:39.650Z,101650.36
2019-01-18T21:31:16.388Z,101657.96
2019-01-18T21:34:18.895Z,101657.94
2019-01-18T21:37:47.929Z,101657.62
2019-01-18T21:40:56.341Z,101661.33
2019-01-18T21:43:57.585Z,101662.94
2019-01-18T21:47:08.625Z,101662.11
2019-01-18T21:50:32.458Z,101665.62
2019-01-18T21:53:35.591Z,101670.77
2019-01-18T21:56:58.486Z,101678.83
2019-01-18T22:00:17.322Z,101676.44
2019-01-18T22:03:54.747Z,101676.74
2019-01-18T22:07:40.008Z,101678.92
2019-01-18T22:10:35.555Z,101684.27
2019-01-18T22:14:15.269Z,101688.19
2019-01-18T22:18:05.099Z,101696.54
2019-01-18T22:21:28.134Z,101702.00
2019-01-18T22:24:38.215Z,101707.34
2019-01-18T22:27:30.733Z,101697.17
2019-01-18T22:30:21.976Z,101698.45
2019-01-18T22:33:32.918Z,101694.13
2019-01-18T22:37:01.303Z,101695.22
2019-01-18T22:40:56.102Z,101697.77
2019-01-18T22:44:01.635Z,101706.03
2019-01-18T22:47:58.946Z,101703.23
2019-01-18T22:50:38.970Z,101698.16
2019-01-18T22:54:10.623Z,101697.42
2019-01-18T22:57:16.930Z,101705.61
2019-01-18T23:01:03.267Z,101700.22
2019-01-18T23:04:30.092Z,101705.91
2019-01-18T23:08:01.878Z,101696.88
2019-01-18T23:11:27.767Z,101698.48
2019-01-18T23:14:52.847Z,101708.02
2019-01-18T23:18:28.565Z,101699.65
2019-01-18T23:21:57.943Z,101696.64
2019-01-18T23:24:56.953Z,101695.02
2019-01-18T23:28:49.721Z,101700.05
2019-01-18T23:32:10.683Z,101696.62
2019-01-18T23:35:03.555Z,101698.94
2019-01-18T23:37:51.502Z,101701.33
2019-01-18T23:41:36.213Z,101696.14
2019-01-18T23:44:42.322Z,101697.41
2019-01-18T23:47:46.686Z,101690.97
2019-01-18T23:51:03.160Z,101699.23
2019-01-18T23:54:20.531Z,101702.89
2019-01-18T23:57:56.013Z,101696.06
